Lenghu, China
Current Conditions -  °F | °C
As of 12:30 PM on Sunday 26 Oct 2014 (Local Time) from ZWWW Reporting Station
Smoke Smoke  
Wind Chill: 59°   Ceiling: Unl
Heat Index: 59°   Visibility: 2.5mi
Dew Point: 45°   Wind: 7mph
Humidity: 59%   Direction: 20°NNE
Pressure: 30"   Gusts: NA
Location:  38.83°N, 93.38°E
Report Text: ZWWW 260430Z 02003MPS 340V060 4000 FU NSC 15/07 Q1016 NOSIG
Loading
Personal Weather Stations






























Interactive Weather Map
Tropical Storm Tracking
New forecast layout! Learn more

10-Day Weather Forecast

Advertisements
Track Severe Weather on mobile